Time;durP1;ratioP1;P1;durP2;ratioP2;P2;SDS_P1;SDS_P2;PMS_P1;PMS_P2;Temp;Humidity;BMP_temperature;BMP_pressure;BME280_temperature;BME280_humidity;BME280_pressure;Samples;Min_cycle;Max_cycle;Signal;HPM_P1;HPM_P2
2023/10/05 00:00:39;;;;;;;;;;;;;;;;;;6333398;28;19912;-87
2023/10/05 00:03:43;;;;;;;;;;;;;;;;;;6351720;28;20365;-87
2023/10/05 00:06:45;;;;;;;;;;;;;;;;;;6352338;28;20358;-87
2023/10/05 00:09:45;;;;;;;;;;;;;;;;;;6333277;28;19914;-87
2023/10/05 00:12:47;;;;;;;;;;;;;;;;;;6351534;28;20301;-87
2023/10/05 00:15:48;;;;;;;;;;;;;;;;;;6351310;28;20350;-87
2023/10/05 00:18:49;;;;;;;;;;;;;;;;;;6351889;28;19956;-87
2023/10/05 00:21:52;;;;;;;;;;;;;;;;;;6351670;28;19908;-87
2023/10/05 00:24:52;;;;;;;;;;;;;;;;;;6351638;28;20282;-87
2023/10/05 00:27:55;;;;;;;;;;;;;;;;;;6351384;28;20429;-80
2023/10/05 00:30:55;;;;;;;;;;;;;;;;;;6332999;28;20340;-80
2023/10/05 00:33:56;;;;;;;;;;;;;;;;;;6332742;28;20387;-80
2023/10/05 00:36:59;;;;;;;;;;;;;;;;;;6350958;28;19907;-80
2023/10/05 00:40:00;;;;;;;;;;;;;;;;;;6350804;28;20014;-80
2023/10/05 00:43:00;;;;;;;;;;;;;;;;;;6332619;28;19960;-80
2023/10/05 00:46:00;;;;;;;;;;;;;;;;;;6350639;28;19998;-80
2023/10/05 00:49:12;;;;;;;;;;;;;;;;;;6332307;28;19914;-80
2023/10/05 00:52:15;;;;;;;;;;;;;;;;;;6351270;28;19951;-80
2023/10/05 00:55:16;;;;;;;;;;;;;;;;;;6332065;28;19951;-80
2023/10/05 00:58:17;;;;;;;;;;;;;;;;;;6332082;28;19922;-80
2023/10/05 01:01:23;;;;;;;;;;;;;;;;;;6350907;28;19908;-80
2023/10/05 01:04:25;;;;;;;;;;;;;;;;;;6350364;28;20483;-81
2023/10/05 01:10:48;;;;;;;;;;;;;;;;;;6350658;28;19908;-80
2023/10/05 01:13:49;;;;;;;;;;;;;;;;;;6351047;28;20041;-80
2023/10/05 01:16:49;;;;;;;;;;;;;;;;;;6349880;28;19908;-79
2023/10/05 01:19:58;;;;;;;;;;;;;;;;;;6331396;28;19912;-80
2023/10/05 01:22:59;;;;;;;;;;;;;;;;;;6349712;28;19914;-80
2023/10/05 01:26:00;;;;;;;;;;;;;;;;;;6331256;28;19908;-80
2023/10/05 01:29:00;;;;;;;;;;;;;;;;;;6331604;28;19933;-80
2023/10/05 01:32:00;;;;;;;;;;;;;;;;;;6349522;28;19907;-80
2023/10/05 01:35:05;;;;;;;;;;;;;;;;;;6350465;28;20007;-80
2023/10/05 01:38:06;;;;;;;;;;;;;;;;;;6349423;28;19919;-80
2023/10/05 01:41:06;;;;;;;;;;;;;;;;;;6331253;28;19990;-80
2023/10/05 01:44:08;;;;;;;;;;;;;;;;;;6349154;28;20439;-80
2023/10/05 01:47:08;;;;;;;;;;;;;;;;;;6349946;28;19908;-80
2023/10/05 01:50:14;;;;;;;;;;;;;;;;;;6330762;28;19940;-81
2023/10/05 01:53:18;;;;;;;;;;;;;;;;;;6348539;28;20350;-81
2023/10/05 01:56:22;;;;;;;;;;;;;;;;;;6349195;28;19919;-81
2023/10/05 01:59:22;;;;;;;;;;;;;;;;;;6330851;28;19911;-79
2023/10/05 02:02:22;;;;;;;;;;;;;;;;;;6330553;28;19957;-81
2023/10/05 02:05:22;;;;;;;;;;;;;;;;;;6330440;28;19923;-80
2023/10/05 02:08:22;;;;;;;;;;;;;;;;;;6348703;28;19912;-81
2023/10/05 02:11:27;;;;;;;;;;;;;;;;;;6330397;28;20400;-80
2023/10/05 02:14:30;;;;;;;;;;;;;;;;;;6349136;28;19908;-79
2023/10/05 02:17:30;;;;;;;;;;;;;;;;;;6348668;28;20293;-80
2023/10/05 02:23:44;;;;;;;;;;;;;;;;;;6349054;28;19908;-80
2023/10/05 02:27:09;;;;;;;;;;;;;;;;;;6347292;28;20388;-80
2023/10/05 02:30:09;;;;;;;;;;;;;;;;;;6348006;28;19914;-80
2023/10/05 02:33:09;;;;;;;;;;;;;;;;;;6330026;28;20382;-80
2023/10/05 02:36:26;;;;;;;;;;;;;;;;;;6329747;28;20007;-80
2023/10/05 02:39:32;;;;;;;;;;;;;;;;;;6348521;28;19999;-80
2023/10/05 02:42:32;;;;;;;;;;;;;;;;;;6348045;28;20408;-80
2023/10/05 02:45:32;;;;;;;;;;;;;;;;;;6348530;28;19911;-79
2023/10/05 02:48:33;;;;;;;;;;;;;;;;;;6330553;28;19970;-80
2023/10/05 02:51:35;;;;;;;;;;;;;;;;;;6330259;28;19915;-80
2023/10/05 02:54:36;;;;;;;;;;;;;;;;;;6347942;28;19907;-80
2023/10/05 02:57:39;;;;;;;;;;;;;;;;;;6329328;28;20386;-80
2023/10/05 03:00:39;;;;;;;;;;;;;;;;;;6347723;28;19995;-80
2023/10/05 03:03:40;;;;;;;;;;;;;;;;;;6329581;28;19908;-79
2023/10/05 03:06:40;;;;;;;;;;;;;;;;;;6332126;28;19930;-80
2023/10/05 03:09:42;;;;;;;;;;;;;;;;;;6353000;28;19912;-80
2023/10/05 03:12:43;;;;;;;;;;;;;;;;;;6352828;28;19962;-80
2023/10/05 03:15:43;;;;;;;;;;;;;;;;;;6334562;28;19941;-80
2023/10/05 03:18:43;;;;;;;;;;;;;;;;;;6334356;28;19911;-80
2023/10/05 03:21:45;;;;;;;;;;;;;;;;;;6352686;28;19908;-80
2023/10/05 03:24:45;;;;;;;;;;;;;;;;;;6353244;28;19914;-80
2023/10/05 03:27:46;;;;;;;;;;;;;;;;;;6334305;28;19908;-80
2023/10/05 03:30:49;;;;;;;;;;;;;;;;;;6334271;28;19908;-80
2023/10/05 03:33:52;;;;;;;;;;;;;;;;;;6334963;28;19908;-79
2023/10/05 03:36:52;;;;;;;;;;;;;;;;;;6352725;28;19908;-79
2023/10/05 03:39:53;;;;;;;;;;;;;;;;;;6333992;28;19954;-80
2023/10/05 03:42:57;;;;;;;;;;;;;;;;;;6352473;28;19940;-79
2023/10/05 03:45:57;;;;;;;;;;;;;;;;;;6334010;28;19911;-80
2023/10/05 03:49:02;;;;;;;;;;;;;;;;;;6352106;28;19919;-79
2023/10/05 03:52:06;;;;;;;;;;;;;;;;;;6352862;28;19907;-79
2023/10/05 03:55:10;;;;;;;;;;;;;;;;;;6352191;28;19999;-79
2023/10/05 03:58:10;;;;;;;;;;;;;;;;;;6348947;28;20403;-79
2023/10/05 04:01:12;;;;;;;;;;;;;;;;;;6312841;28;19995;-81
2023/10/05 04:04:13;;;;;;;;;;;;;;;;;;6314686;28;19912;-80
2023/10/05 04:07:15;;;;;;;;;;;;;;;;;;6342610;28;19908;-80
2023/10/05 04:10:20;;;;;;;;;;;;;;;;;;6328814;27;19915;-80
2023/10/05 04:13:23;;;;;;;;;;;;;;;;;;6323312;28;20361;-80
2023/10/05 04:16:28;;;;;;;;;;;;;;;;;;6318861;28;19916;-80
2023/10/05 04:19:30;;;;;;;;;;;;;;;;;;6333677;28;19912;-80
2023/10/05 04:22:32;;;;;;;;;;;;;;;;;;6330477;28;20368;-80
2023/10/05 04:25:32;;;;;;;;;;;;;;;;;;6339342;28;19916;-80
2023/10/05 04:28:33;;;;;;;;;;;;;;;;;;6338060;28;19948;-79
2023/10/05 04:31:35;;;;;;;;;;;;;;;;;;6315444;28;19938;-80
2023/10/05 04:34:36;;;;;;;;;;;;;;;;;;6339698;28;19947;-80
2023/10/05 04:37:36;;;;;;;;;;;;;;;;;;6336267;28;20385;-81
2023/10/05 04:40:38;;;;;;;;;;;;;;;;;;6337847;27;19912;-80
2023/10/05 04:43:38;;;;;;;;;;;;;;;;;;6313877;28;19908;-80
2023/10/05 04:46:47;;;;;;;;;;;;;;;;;;6326484;27;19951;-80
2023/10/05 04:49:48;;;;;;;;;;;;;;;;;;6315220;28;19916;-81
2023/10/05 04:52:51;;;;;;;;;;;;;;;;;;6322267;28;19927;-80
2023/10/05 04:56:00;;;;;;;;;;;;;;;;;;6340069;28;19923;-81
2023/10/05 05:02:22;;;;;;;;;;;;;;;;;;6328322;28;19959;-81
2023/10/05 05:05:50;;;;;;;;;;;;;;;;;;6316703;28;19919;-80
2023/10/05 05:08:50;;;;;;;;;;;;;;;;;;6336033;28;19918;-80
2023/10/05 05:11:51;;;;;;;;;;;;;;;;;;6310978;28;19908;-80
2023/10/05 05:14:54;;;;;;;;;;;;;;;;;;6318975;27;19936;-81
2023/10/05 05:17:55;;;;;;;;;;;;;;;;;;6309505;28;19919;-81
2023/10/05 05:20:55;;;;;;;;;;;;;;;;;;6322979;28;19908;-81
2023/10/05 05:23:58;;;;;;;;;;;;;;;;;;6321851;28;20377;-80
2023/10/05 05:27:03;;;;;;;;;;;;;;;;;;6333110;28;19920;-81
2023/10/05 05:30:03;;;;;;;;;;;;;;;;;;6322127;28;19916;-81
2023/10/05 05:33:09;;;;;;;;;;;;;;;;;;6332174;28;19960;-81
2023/10/05 05:36:11;;;;;;;;;;;;;;;;;;6311739;28;19908;-81
2023/10/05 05:39:14;;;;;;;;;;;;;;;;;;6330052;28;20400;-81
2023/10/05 05:42:14;;;;;;;;;;;;;;;;;;6325114;28;20007;-81
2023/10/05 05:45:20;;;;;;;;;;;;;;;;;;6318960;28;19949;-81
2023/10/05 05:48:21;;;;;;;;;;;;;;;;;;6309246;28;19941;-81
2023/10/05 05:51:24;;;;;;;;;;;;;;;;;;6333372;28;19916;-82
2023/10/05 05:54:24;;;;;;;;;;;;;;;;;;6313672;28;19907;-81
2023/10/05 05:57:24;;;;;;;;;;;;;;;;;;6325609;28;19931;-82
2023/10/05 06:00:25;;;;;;;;;;;;;;;;;;6308070;28;19950;-80
2023/10/05 06:03:25;;;;;;;;;;;;;;;;;;6316396;28;20405;-80
2023/10/05 06:06:26;;;;;;;;;;;;;;;;;;6331347;28;19912;-80
2023/10/05 06:09:27;;;;;;;;;;;;;;;;;;6310192;28;19912;-80
2023/10/05 06:12:27;;;;;;;;;;;;;;;;;;6330308;28;20091;-81
2023/10/05 06:15:27;;;;;;;;;;;;;;;;;;6314227;28;20534;-81
2023/10/05 06:18:27;;;;;;;;;;;;;;;;;;6315226;28;19969;-87
2023/10/05 06:21:27;;;;;;;;;;;;;;;;;;6306386;28;19911;-88
2023/10/05 06:24:28;;;;;;;;;;;;;;;;;;6335259;28;19953;-88
2023/10/05 06:27:28;;;;;;;;;;;;;;;;;;6328949;28;19924;-88
2023/10/05 06:30:28;;;;;;;;;;;;;;;;;;6332272;28;19927;-88
2023/10/05 06:33:28;;;;;;;;;;;;;;;;;;6319973;28;19916;-88
2023/10/05 06:36:29;;;;;;;;;;;;;;;;;;6317901;28;20347;-88
2023/10/05 06:39:30;;;;;;;;;;;;;;;;;;6344063;28;19915;-88
2023/10/05 06:42:31;;;;;;;;;;;;;;;;;;6314348;28;20362;-88
2023/10/05 06:45:31;;;;;;;;;;;;;;;;;;6312287;28;19944;-88
2023/10/05 06:48:32;;;;;;;;;;;;;;;;;;6319879;28;20396;-88
2023/10/05 06:51:32;;;;;;;;;;;;;;;;;;6303665;28;19912;-88
2023/10/05 06:54:32;;;;;;;;;;;;;;;;;;6332362;28;19930;-88
2023/10/05 06:57:32;;;;;;;;;;;;;;;;;;6300022;28;20593;-88
2023/10/05 07:00:33;;;;;;;;;;;;;;;;;;6308814;28;19923;-89
2023/10/05 07:03:33;;;;;;;;;;;;;;;;;;6302374;28;19920;-89
2023/10/05 07:06:33;;;;;;;;;;;;;;;;;;6317457;28;20297;-89
2023/10/05 07:09:34;;;;;;;;;;;;;;;;;;6309892;28;19976;-89
2023/10/05 07:12:55;;;;;;;;;;;;;;;;;;6325303;28;19912;-90
2023/10/05 07:15:55;;;;;;;;;;;;;;;;;;6325258;28;20327;-90
2023/10/05 07:18:55;;;;;;;;;;;;;;;;;;6307338;28;19916;-89
2023/10/05 07:21:55;;;;;;;;;;;;;;;;;;6323208;28;19927;-89
2023/10/05 07:24:56;;;;;;;;;;;;;;;;;;6321410;28;19919;-90
2023/10/05 07:27:57;;;;;;;;;;;;;;;;;;6319616;28;20202;-82
2023/10/05 07:30:59;;;;;;;;;;;;;;;;;;6308937;28;19965;-83
2023/10/05 07:33:59;;;;;;;;;;;;;;;;;;6319497;28;19911;-82
2023/10/05 07:37:01;;;;;;;;;;;;;;;;;;6326717;28;20003;-83
2023/10/05 07:40:04;;;;;;;;;;;;;;;;;;6329769;28;19923;-83
2023/10/05 07:43:06;;;;;;;;;;;;;;;;;;6325845;28;19923;-83
2023/10/05 07:46:06;;;;;;;;;;;;;;;;;;6312764;28;20017;-82
2023/10/05 07:49:06;;;;;;;;;;;;;;;;;;6336050;28;19927;-82
2023/10/05 07:52:09;;;;;;;;;;;;;;;;;;6310932;28;19919;-83
2023/10/05 07:55:09;;;;;;;;;;;;;;;;;;6328219;28;20297;-82
2023/10/05 07:58:09;;;;;;;;;;;;;;;;;;6306030;28;19924;-83
2023/10/05 08:01:10;;;;;;;;;;;;;;;;;;6336206;28;19916;-82
2023/10/05 08:04:11;;;;;;;;;;;;;;;;;;6320428;28;19916;-82
2023/10/05 08:07:11;;;;;;;;;;;;;;;;;;6331637;28;19915;-82
2023/10/05 08:10:18;;;;;;;;;;;;;;;;;;6329412;27;20285;-82
2023/10/05 08:13:19;;;;;;;;;;;;;;;;;;6331151;27;19912;-82
2023/10/05 08:16:19;;;;;;;;;;;;;;;;;;6313591;28;19948;-82
2023/10/05 08:19:19;;;;;;;;;;;;;;;;;;6334002;28;19916;-83
2023/10/05 08:22:20;;;;;;;;;;;;;;;;;;6305007;28;19916;-82
2023/10/05 08:25:22;;;;;;;;;;;;;;;;;;6325237;28;19912;-81
2023/10/05 08:28:22;;;;;;;;;;;;;;;;;;6338509;27;19985;-83
2023/10/05 08:31:25;;;;;;;;;;;;;;;;;;6337497;28;19912;-81
2023/10/05 08:34:25;;;;;;;;;;;;;;;;;;6313930;28;19912;-82
2023/10/05 08:37:32;;;;;;;;;;;;;;;;;;6323756;28;19919;-81
2023/10/05 08:43:35;;;;;;;;;;;;;;;;;;6333678;28;20358;-81
2023/10/05 08:46:35;;;;;;;;;;;;;;;;;;6332279;28;19912;-82
2023/10/05 08:49:36;;;;;;;;;;;;;;;;;;6333732;28;19920;-81
2023/10/05 08:52:40;;;;;;;;;;;;;;;;;;6315485;28;20288;-82
2023/10/05 08:55:40;;;;;;;;;;;;;;;;;;6313321;28;20309;-82
2023/10/05 08:58:41;;;;;;;;;;;;;;;;;;6315257;28;19920;-81
2023/10/05 09:01:42;;;;;;;;;;;;;;;;;;6338385;28;19968;-81
2023/10/05 09:04:45;;;;;;;;;;;;;;;;;;6317772;28;19916;-82
2023/10/05 09:07:45;;;;;;;;;;;;;;;;;;6335177;28;19927;-82
2023/10/05 09:10:51;;;;;;;;;;;;;;;;;;6330467;28;19916;-82
2023/10/05 09:13:51;;;;;;;;;;;;;;;;;;6317357;28;19951;-81
2023/10/05 09:16:58;;;;;;;;;;;;;;;;;;6323975;27;19919;-81
2023/10/05 09:20:00;;;;;;;;;;;;;;;;;;6334335;28;20021;-81
2023/10/05 09:23:00;;;;;;;;;;;;;;;;;;6308826;28;19927;-81
2023/10/05 09:26:01;;;;;;;;;;;;;;;;;;6329231;28;19912;-82
2023/10/05 09:29:12;;;;;;;;;;;;;;;;;;6335117;28;20393;-80
2023/10/05 09:32:12;;;;;;;;;;;;;;;;;;6337884;28;20409;-81
2023/10/05 09:35:14;;;;;;;;;;;;;;;;;;6307463;28;19912;-80
2023/10/05 09:38:17;;;;;;;;;;;;;;;;;;6335333;28;19918;-81
2023/10/05 09:41:17;;;;;;;;;;;;;;;;;;6332714;28;20380;-81
2023/10/05 09:44:18;;;;;;;;;;;;;;;;;;6325268;28;19908;-80
2023/10/05 09:47:18;;;;;;;;;;;;;;;;;;6313516;28;19912;-88
2023/10/05 09:50:21;;;;;;;;;;;;;;;;;;6331079;27;19950;-89
2023/10/05 09:53:21;;;;;;;;;;;;;;;;;;6320592;28;20374;-88
2023/10/05 09:56:25;;;;;;;;;;;;;;;;;;6308570;28;19924;-87
2023/10/05 09:59:25;;;;;;;;;;;;;;;;;;6334081;28;19920;-88
2023/10/05 10:02:27;;;;;;;;;;;;;;;;;;6322271;28;21341;-88
2023/10/05 10:05:30;;;;;;;;;;;;;;;;;;6337155;27;20010;-87
2023/10/05 10:08:30;;;;;;;;;;;;;;;;;;6319328;28;19916;-88
2023/10/05 10:11:32;;;;;;;;;;;;;;;;;;6313145;27;20277;-87
2023/10/05 10:14:32;;;;;;;;;;;;;;;;;;6322867;28;20362;-88
2023/10/05 10:17:32;;;;;;;;;;;;;;;;;;6320194;28;19920;-88
2023/10/05 10:20:36;;;;;;;;;;;;;;;;;;6339912;27;19918;-88
2023/10/05 10:23:36;;;;;;;;;;;;;;;;;;6327375;28;20310;-88
2023/10/05 10:26:36;;;;;;;;;;;;;;;;;;6324154;28;20660;-81
2023/10/05 10:29:36;;;;;;;;;;;;;;;;;;6316266;28;19916;-82
2023/10/05 10:32:37;;;;;;;;;;;;;;;;;;6305705;28;19916;-81
2023/10/05 10:35:41;;;;;;;;;;;;;;;;;;6324946;28;20364;-82
2023/10/05 10:38:44;;;;;;;;;;;;;;;;;;6329385;28;19941;-80
2023/10/05 10:41:44;;;;;;;;;;;;;;;;;;6335135;28;20019;-80
2023/10/05 10:47:52;;;;;;;;;;;;;;;;;;6321771;28;19916;-81
2023/10/05 10:50:52;;;;;;;;;;;;;;;;;;6327034;28;19923;-82
2023/10/05 10:53:55;;;;;;;;;;;;;;;;;;6317190;28;19916;-81
2023/10/05 10:56:55;;;;;;;;;;;;;;;;;;6328614;28;20309;-82
2023/10/05 11:03:15;;;;;;;;;;;;;;;;;;6331714;28;19920;-82
2023/10/05 11:06:16;;;;;;;;;;;;;;;;;;6301757;28;19912;-82
2023/10/05 11:09:18;;;;;;;;;;;;;;;;;;6317275;28;19928;-80
2023/10/05 11:12:22;;;;;;;;;;;;;;;;;;6334873;28;20446;-82
2023/10/05 11:15:30;;;;;;;;;;;;;;;;;;6309139;28;19916;-80
2023/10/05 11:18:31;;;;;;;;;;;;;;;;;;6310574;28;20389;-81
2023/10/05 11:21:34;;;;;;;;;;;;;;;;;;6324570;28;19927;-81
2023/10/05 11:24:38;;;;;;;;;;;;;;;;;;6308360;28;20479;-80
2023/10/05 11:27:40;;;;;;;;;;;;;;;;;;6330312;28;19968;-81
2023/10/05 11:30:45;;;;;;;;;;;;;;;;;;6312622;28;20500;-80
2023/10/05 11:33:46;;;;;;;;;;;;;;;;;;6324772;28;19912;-80
2023/10/05 11:36:47;;;;;;;;;;;;;;;;;;6319885;28;19946;-87
2023/10/05 11:39:50;;;;;;;;;;;;;;;;;;6323233;27;19912;-88
2023/10/05 11:42:50;;;;;;;;;;;;;;;;;;6316011;28;20447;-87
2023/10/05 11:45:50;;;;;;;;;;;;;;;;;;6327114;28;19918;-87
2023/10/05 11:48:56;;;;;;;;;;;;;;;;;;6312899;28;19919;-89
2023/10/05 11:51:56;;;;;;;;;;;;;;;;;;6329573;28;20285;-88
2023/10/05 11:54:56;;;;;;;;;;;;;;;;;;6339674;27;19916;-88
2023/10/05 11:57:57;;;;;;;;;;;;;;;;;;6320676;28;19958;-88
2023/10/05 12:01:03;;;;;;;;;;;;;;;;;;6333301;28;20273;-89
2023/10/05 12:04:04;;;;;;;;;;;;;;;;;;6331713;28;19918;-88
2023/10/05 12:07:04;;;;;;;;;;;;;;;;;;6337416;28;20539;-82
2023/10/05 12:10:09;;;;;;;;;;;;;;;;;;6319698;27;19923;-81
2023/10/05 12:13:09;;;;;;;;;;;;;;;;;;6325458;28;19908;-82
2023/10/05 12:16:13;;;;;;;;;;;;;;;;;;6307022;28;20275;-82
2023/10/05 12:19:27;;;;;;;;;;;;;;;;;;6308626;28;19923;-80
2023/10/05 12:22:32;;;;;;;;;;;;;;;;;;6338025;28;19912;-81
2023/10/05 12:25:33;;;;;;;;;;;;;;;;;;6317951;28;19908;-81
2023/10/05 12:28:33;;;;;;;;;;;;;;;;;;6315845;28;19963;-81
2023/10/05 12:31:34;;;;;;;;;;;;;;;;;;6335353;28;20382;-81
2023/10/05 12:34:35;;;;;;;;;;;;;;;;;;6337884;28;19912;-82
2023/10/05 12:37:35;;;;;;;;;;;;;;;;;;6302359;28;20642;-82
2023/10/05 12:40:35;;;;;;;;;;;;;;;;;;6345264;27;19962;-82
2023/10/05 12:43:35;;;;;;;;;;;;;;;;;;6327748;28;19912;-82
2023/10/05 12:46:39;;;;;;;;;;;;;;;;;;6314510;28;19963;-82
2023/10/05 12:49:39;;;;;;;;;;;;;;;;;;6323479;28;19923;-81
2023/10/05 12:52:40;;;;;;;;;;;;;;;;;;6320640;28;19998;-82
2023/10/05 12:55:40;;;;;;;;;;;;;;;;;;6342875;27;20018;-82
2023/10/05 12:58:41;;;;;;;;;;;;;;;;;;6335988;28;19951;-81
2023/10/05 13:01:44;;;;;;;;;;;;;;;;;;6316919;28;20027;-82
2023/10/05 13:04:44;;;;;;;;;;;;;;;;;;6312228;28;19908;-81
2023/10/05 13:07:44;;;;;;;;;;;;;;;;;;6314720;28;20369;-83
2023/10/05 13:10:48;;;;;;;;;;;;;;;;;;6336386;27;19951;-82
2023/10/05 13:13:48;;;;;;;;;;;;;;;;;;6309183;28;19908;-81
2023/10/05 13:16:48;;;;;;;;;;;;;;;;;;6333991;28;20298;-89
2023/10/05 13:19:48;;;;;;;;;;;;;;;;;;6318546;28;19912;-89
2023/10/05 13:22:49;;;;;;;;;;;;;;;;;;6315910;28;19961;-89
2023/10/05 13:25:50;;;;;;;;;;;;;;;;;;6325278;28;20261;-89
2023/10/05 13:28:50;;;;;;;;;;;;;;;;;;6327438;28;19916;-89
2023/10/05 13:31:50;;;;;;;;;;;;;;;;;;6308298;28;19923;-88
2023/10/05 13:34:50;;;;;;;;;;;;;;;;;;6343075;28;19912;-88
2023/10/05 13:37:51;;;;;;;;;;;;;;;;;;6331229;27;20027;-89
2023/10/05 13:44:10;;;;;;;;;;;;;;;;;;6337413;28;19912;-89
2023/10/05 13:47:11;;;;;;;;;;;;;;;;;;6310974;28;19918;-89
2023/10/05 13:50:12;;;;;;;;;;;;;;;;;;6313246;28;19927;-89
2023/10/05 13:53:12;;;;;;;;;;;;;;;;;;6332369;28;19915;-89
2023/10/05 13:56:12;;;;;;;;;;;;;;;;;;6311319;27;19927;-83
2023/10/05 13:59:21;;;;;;;;;;;;;;;;;;6317936;28;19908;-82
2023/10/05 14:02:21;;;;;;;;;;;;;;;;;;6310869;28;19912;-82
2023/10/05 14:05:22;;;;;;;;;;;;;;;;;;6336987;28;19919;-81
2023/10/05 14:08:23;;;;;;;;;;;;;;;;;;6311173;28;19970;-82
2023/10/05 14:11:23;;;;;;;;;;;;;;;;;;6313194;28;19923;-82
2023/10/05 14:14:23;;;;;;;;;;;;;;;;;;6311177;28;19916;-81
2023/10/05 14:17:24;;;;;;;;;;;;;;;;;;6317865;28;19919;-82
2023/10/05 14:20:24;;;;;;;;;;;;;;;;;;6299731;28;19908;-81
2023/10/05 14:23:27;;;;;;;;;;;;;;;;;;6315387;28;19947;-82
2023/10/05 14:26:27;;;;;;;;;;;;;;;;;;6308085;28;19916;-81
2023/10/05 14:29:34;;;;;;;;;;;;;;;;;;6322786;28;19931;-82
2023/10/05 14:32:36;;;;;;;;;;;;;;;;;;6325470;27;19916;-82
2023/10/05 14:35:36;;;;;;;;;;;;;;;;;;6321452;27;19923;-82
2023/10/05 14:38:37;;;;;;;;;;;;;;;;;;6337812;28;19912;-81
2023/10/05 14:41:39;;;;;;;;;;;;;;;;;;6329738;28;19919;-82
2023/10/05 14:44:42;;;;;;;;;;;;;;;;;;6302410;28;20368;-81
2023/10/05 14:47:42;;;;;;;;;;;;;;;;;;6302066;28;19947;-81
2023/10/05 14:50:43;;;;;;;;;;;;;;;;;;6317163;28;19941;-82
2023/10/05 14:53:43;;;;;;;;;;;;;;;;;;6326638;28;19926;-83
2023/10/05 14:56:43;;;;;;;;;;;;;;;;;;6297930;28;20090;-82
2023/10/05 14:59:44;;;;;;;;;;;;;;;;;;6333665;28;19957;-82
2023/10/05 15:02:44;;;;;;;;;;;;;;;;;;6311511;28;19920;-82
2023/10/05 15:05:45;;;;;;;;;;;;;;;;;;6314983;28;19919;-83
2023/10/05 15:08:48;;;;;;;;;;;;;;;;;;6321589;28;19923;-88
2023/10/05 15:11:48;;;;;;;;;;;;;;;;;;6343511;27;20656;-88
2023/10/05 15:14:49;;;;;;;;;;;;;;;;;;6323700;28;19961;-88
2023/10/05 15:17:49;;;;;;;;;;;;;;;;;;6326068;27;19915;-88
2023/10/05 15:20:49;;;;;;;;;;;;;;;;;;6340760;27;20012;-90
2023/10/05 15:23:49;;;;;;;;;;;;;;;;;;6327064;27;19924;-89
2023/10/05 15:26:50;;;;;;;;;;;;;;;;;;6319468;28;19922;-90
2023/10/05 15:29:50;;;;;;;;;;;;;;;;;;6314501;28;20983;-89
2023/10/05 15:32:50;;;;;;;;;;;;;;;;;;6321737;28;19919;-90
2023/10/05 15:35:50;;;;;;;;;;;;;;;;;;6315363;28;19912;-90
2023/10/05 15:38:50;;;;;;;;;;;;;;;;;;6321633;28;20693;-82
2023/10/05 15:41:51;;;;;;;;;;;;;;;;;;6321929;28;20601;-84
2023/10/05 15:44:51;;;;;;;;;;;;;;;;;;6326783;28;19912;-83
2023/10/05 15:47:51;;;;;;;;;;;;;;;;;;6326304;28;19919;-83
2023/10/05 15:50:51;;;;;;;;;;;;;;;;;;6333927;28;19923;-83
2023/10/05 15:53:56;;;;;;;;;;;;;;;;;;6343034;28;19911;-82
2023/10/05 15:57:00;;;;;;;;;;;;;;;;;;6321572;28;20386;-83
2023/10/05 16:00:00;;;;;;;;;;;;;;;;;;6320459;28;20281;-83
2023/10/05 16:03:01;;;;;;;;;;;;;;;;;;6331999;28;19916;-83
2023/10/05 16:06:03;;;;;;;;;;;;;;;;;;6308708;28;19916;-82
2023/10/05 16:09:04;;;;;;;;;;;;;;;;;;6333806;28;19970;-83
2023/10/05 16:12:04;;;;;;;;;;;;;;;;;;6339559;27;19920;-82
2023/10/05 16:15:08;;;;;;;;;;;;;;;;;;6313034;28;20396;-83
2023/10/05 16:18:10;;;;;;;;;;;;;;;;;;6309265;28;20643;-89
2023/10/05 16:21:10;;;;;;;;;;;;;;;;;;6319470;28;19961;-89
2023/10/05 16:24:11;;;;;;;;;;;;;;;;;;6313942;28;19912;-89
2023/10/05 16:27:11;;;;;;;;;;;;;;;;;;6313454;28;19912;-89
2023/10/05 16:30:14;;;;;;;;;;;;;;;;;;6333710;27;19931;-88
2023/10/05 16:33:14;;;;;;;;;;;;;;;;;;6327664;28;19909;-90
2023/10/05 16:36:17;;;;;;;;;;;;;;;;;;6306795;27;20364;-90
2023/10/05 16:39:21;;;;;;;;;;;;;;;;;;6304271;28;20519;-89
2023/10/05 16:42:21;;;;;;;;;;;;;;;;;;6317984;28;19915;-89
2023/10/05 16:45:21;;;;;;;;;;;;;;;;;;6316606;28;19946;-90
2023/10/05 16:48:21;;;;;;;;;;;;;;;;;;6316574;27;19916;-83
2023/10/05 16:51:21;;;;;;;;;;;;;;;;;;6306779;28;20164;-82
2023/10/05 16:54:23;;;;;;;;;;;;;;;;;;6332491;27;19916;-83
2023/10/05 16:57:23;;;;;;;;;;;;;;;;;;6320678;28;20354;-83
2023/10/05 17:00:24;;;;;;;;;;;;;;;;;;6336540;28;19922;-82
2023/10/05 17:03:26;;;;;;;;;;;;;;;;;;6327560;28;19966;-83
2023/10/05 17:06:26;;;;;;;;;;;;;;;;;;6339491;28;19957;-83
2023/10/05 17:09:28;;;;;;;;;;;;;;;;;;6332822;28;19963;-83
2023/10/05 17:12:28;;;;;;;;;;;;;;;;;;6324097;28;19942;-83
2023/10/05 17:15:28;;;;;;;;;;;;;;;;;;6322122;27;20326;-83
2023/10/05 17:18:28;;;;;;;;;;;;;;;;;;6334768;28;20384;-82
2023/10/05 17:21:28;;;;;;;;;;;;;;;;;;6324464;28;20348;-83
2023/10/05 17:24:28;;;;;;;;;;;;;;;;;;6307723;28;19916;-83
2023/10/05 17:27:29;;;;;;;;;;;;;;;;;;6321009;28;19923;-83
2023/10/05 17:30:29;;;;;;;;;;;;;;;;;;6315768;28;19965;-82
2023/10/05 17:33:30;;;;;;;;;;;;;;;;;;6328431;28;19916;-83
2023/10/05 17:36:30;;;;;;;;;;;;;;;;;;6334368;28;19915;-83
2023/10/05 17:39:31;;;;;;;;;;;;;;;;;;6322842;27;19915;-83
2023/10/05 17:42:33;;;;;;;;;;;;;;;;;;6313773;28;20400;-83
2023/10/05 17:45:33;;;;;;;;;;;;;;;;;;6317400;28;20412;-83
2023/10/05 17:48:33;;;;;;;;;;;;;;;;;;6314870;28;19983;-83
2023/10/05 17:51:33;;;;;;;;;;;;;;;;;;6331982;28;19912;-83
2023/10/05 17:54:33;;;;;;;;;;;;;;;;;;6331259;27;19922;-84
2023/10/05 17:57:34;;;;;;;;;;;;;;;;;;6329917;27;19958;-83
2023/10/05 18:00:34;;;;;;;;;;;;;;;;;;6305920;28;19916;-83
2023/10/05 18:03:34;;;;;;;;;;;;;;;;;;6314950;28;19916;-83
2023/10/05 18:06:34;;;;;;;;;;;;;;;;;;6322765;28;19919;-91
2023/10/05 18:09:34;;;;;;;;;;;;;;;;;;6327283;27;19924;-91
2023/10/05 18:12:34;;;;;;;;;;;;;;;;;;6334239;27;19916;-91
2023/10/05 18:15:34;;;;;;;;;;;;;;;;;;6329892;28;19963;-91
2023/10/05 18:18:35;;;;;;;;;;;;;;;;;;6321114;28;19999;-91
2023/10/05 18:21:37;;;;;;;;;;;;;;;;;;6310149;28;19916;-91
2023/10/05 18:24:37;;;;;;;;;;;;;;;;;;6309447;28;19923;-91
2023/10/05 18:27:37;;;;;;;;;;;;;;;;;;6331954;28;19911;-91
2023/10/05 18:30:37;;;;;;;;;;;;;;;;;;6310369;28;19959;-91
2023/10/05 18:33:37;;;;;;;;;;;;;;;;;;6309425;28;19916;-91
2023/10/05 18:36:38;;;;;;;;;;;;;;;;;;6310648;28;19990;-91
2023/10/05 18:39:38;;;;;;;;;;;;;;;;;;6307398;28;19923;-90
2023/10/05 18:42:43;;;;;;;;;;;;;;;;;;6314927;28;19956;-91
2023/10/05 18:45:43;;;;;;;;;;;;;;;;;;6319917;28;19935;-91
2023/10/05 18:48:43;;;;;;;;;;;;;;;;;;6321223;28;19927;-91
2023/10/05 18:51:43;;;;;;;;;;;;;;;;;;6346713;28;19923;-90
2023/10/05 18:54:44;;;;;;;;;;;;;;;;;;6324300;28;19922;-91
2023/10/05 18:57:44;;;;;;;;;;;;;;;;;;6331228;28;19923;-82
2023/10/05 19:00:45;;;;;;;;;;;;;;;;;;6326605;28;19920;-82
2023/10/05 19:03:45;;;;;;;;;;;;;;;;;;6299048;28;19908;-82
2023/10/05 19:06:45;;;;;;;;;;;;;;;;;;6312631;28;19908;-83
2023/10/05 19:09:45;;;;;;;;;;;;;;;;;;6311154;28;19961;-83
2023/10/05 19:12:45;;;;;;;;;;;;;;;;;;6324406;28;20389;-82
2023/10/05 19:15:45;;;;;;;;;;;;;;;;;;6332454;28;19911;-82
2023/10/05 19:18:47;;;;;;;;;;;;;;;;;;6303145;28;19912;-92
2023/10/05 19:21:47;;;;;;;;;;;;;;;;;;6304544;28;19916;-91
2023/10/05 19:24:47;;;;;;;;;;;;;;;;;;6307826;28;20059;-91
2023/10/05 19:27:48;;;;;;;;;;;;;;;;;;6306283;28;19908;-91
2023/10/05 19:30:48;;;;;;;;;;;;;;;;;;6336734;28;20014;-91
2023/10/05 19:33:51;;;;;;;;;;;;;;;;;;6314757;28;20028;-91
2023/10/05 19:36:52;;;;;;;;;;;;;;;;;;6330804;28;19916;-89
2023/10/05 19:39:52;;;;;;;;;;;;;;;;;;6341516;28;20059;-89
2023/10/05 19:42:52;;;;;;;;;;;;;;;;;;6327170;28;20323;-91
2023/10/05 19:45:53;;;;;;;;;;;;;;;;;;6330094;28;19920;-91
2023/10/05 19:48:53;;;;;;;;;;;;;;;;;;6336582;28;19978;-91
2023/10/05 19:51:53;;;;;;;;;;;;;;;;;;6331902;28;19959;-90
2023/10/05 19:54:53;;;;;;;;;;;;;;;;;;6327371;28;19965;-91
2023/10/05 19:57:54;;;;;;;;;;;;;;;;;;6333867;28;19928;-90
2023/10/05 20:00:55;;;;;;;;;;;;;;;;;;6331604;28;20211;-91
2023/10/05 20:03:55;;;;;;;;;;;;;;;;;;6316972;28;19908;-88
2023/10/05 20:06:55;;;;;;;;;;;;;;;;;;6324556;28;19912;-82
2023/10/05 20:09:56;;;;;;;;;;;;;;;;;;6308993;28;19919;-83
2023/10/05 20:12:56;;;;;;;;;;;;;;;;;;6342708;27;20370;-82
2023/10/05 20:15:58;;;;;;;;;;;;;;;;;;6306998;28;19919;-82
2023/10/05 20:18:58;;;;;;;;;;;;;;;;;;6328822;28;19915;-82
2023/10/05 20:21:58;;;;;;;;;;;;;;;;;;6323781;28;19957;-82
2023/10/05 20:24:58;;;;;;;;;;;;;;;;;;6311169;28;19915;-81
2023/10/05 20:27:58;;;;;;;;;;;;;;;;;;6324254;28;19916;-82
2023/10/05 20:31:00;;;;;;;;;;;;;;;;;;6345126;28;19922;-82
2023/10/05 20:34:01;;;;;;;;;;;;;;;;;;6318376;28;19911;-82
2023/10/05 20:37:01;;;;;;;;;;;;;;;;;;6340769;28;19919;-83
2023/10/05 20:40:02;;;;;;;;;;;;;;;;;;6341535;28;19958;-82
2023/10/05 20:43:03;;;;;;;;;;;;;;;;;;6321475;28;19912;-81
2023/10/05 20:46:03;;;;;;;;;;;;;;;;;;6339607;28;20017;-82
2023/10/05 20:49:05;;;;;;;;;;;;;;;;;;6321067;28;19934;-82
2023/10/05 20:52:05;;;;;;;;;;;;;;;;;;6301976;28;19994;-82
2023/10/05 20:55:05;;;;;;;;;;;;;;;;;;6308343;28;19912;-82
2023/10/05 20:58:06;;;;;;;;;;;;;;;;;;6307137;28;19924;-81
2023/10/05 21:01:06;;;;;;;;;;;;;;;;;;6326927;28;19908;-80